Time;durP1;ratioP1;P1;durP2;ratioP2;P2;SDS_P1;SDS_P2;PMS_P1;PMS_P2;Temp;Humidity;BMP_temperature;BMP_pressure;BME280_temperature;BME280_humidity;BME280_pressure;Samples;Min_cycle;Max_cycle;Signal;HPM_P1;HPM_P2
2023/02/05 00:00:23;;;;;;;1999.90;999.90;;;3.20;99.90;;;;;;5108944;28;20451;-69
2023/02/05 00:02:49;;;;;;;1999.90;999.90;;;3.30;99.90;;;;;;5109149;28;20460;-69
2023/02/05 00:05:18;;;;;;;1999.90;999.90;;;3.40;99.90;;;;;;5108994;28;20472;-69
2023/02/05 00:07:44;;;;;;;1999.90;999.90;;;3.40;99.90;;;;;;5109381;28;20664;-68
2023/02/05 00:10:11;;;;;;;1999.90;999.90;;;3.40;99.90;;;;;;5109326;28;20441;-68
2023/02/05 00:12:38;;;;;;;1999.90;999.90;;;3.30;99.90;;;;;;5108547;28;20447;-70
2023/02/05 00:15:06;;;;;;;1999.90;999.90;;;3.30;99.90;;;;;;5109957;28;20453;-68
2023/02/05 00:17:35;;;;;;;1999.90;999.90;;;3.30;99.90;;;;;;5108563;28;20445;-69
2023/02/05 00:20:01;;;;;;;1999.90;999.90;;;3.10;99.90;;;;;;5109783;28;20452;-68
2023/02/05 00:22:30;;;;;;;1999.90;999.90;;;3.20;99.90;;;;;;5107389;28;20968;-67
2023/02/05 00:24:56;;;;;;;1999.90;999.90;;;3.20;99.90;;;;;;5108660;28;20442;-69
2023/02/05 00:27:23;;;;;;;1999.90;999.90;;;3.30;99.90;;;;;;5109416;28;20472;-67
2023/02/05 00:29:50;;;;;;;1999.90;999.90;;;3.20;99.90;;;;;;5109295;28;20452;-68
2023/02/05 00:32:17;;;;;;;1999.90;999.90;;;3.20;99.90;;;;;;5110609;28;20442;-67
2023/02/05 00:34:43;;;;;;;1999.90;999.90;;;3.30;99.90;;;;;;5109943;28;20445;-69
2023/02/05 00:37:10;;;;;;;1999.90;999.90;;;3.20;99.90;;;;;;5110526;28;20476;-69
2023/02/05 00:39:38;;;;;;;1999.90;999.90;;;3.00;99.90;;;;;;5109663;28;20441;-68
2023/02/05 00:42:05;;;;;;;1999.90;999.90;;;3.10;99.90;;;;;;5108537;28;20947;-68
2023/02/05 00:44:32;;;;;;;1999.90;999.90;;;3.20;99.90;;;;;;5106114;28;20445;-67
2023/02/05 00:46:59;;;;;;;1999.90;999.90;;;3.20;99.90;;;;;;5108703;28;21088;-67
2023/02/05 00:49:26;;;;;;;1999.90;999.90;;;3.10;99.90;;;;;;5108108;28;20857;-68
2023/02/05 00:51:52;;;;;;;1999.90;999.90;;;3.00;99.90;;;;;;5109154;28;20460;-67
2023/02/05 00:54:19;;;;;;;1999.90;999.90;;;3.00;99.90;;;;;;5108222;28;20945;-67
2023/02/05 00:56:47;;;;;;;1999.90;999.90;;;3.10;99.90;;;;;;5109218;28;20465;-67
2023/02/05 00:59:14;;;;;;;1999.90;999.90;;;3.20;99.90;;;;;;5109708;28;20867;-68
2023/02/05 01:01:41;;;;;;;1999.90;999.90;;;3.10;99.90;;;;;;5108196;28;21005;-67
2023/02/05 01:04:08;;;;;;;1999.90;999.90;;;3.10;99.90;;;;;;5108523;28;20850;-68
2023/02/05 01:06:35;;;;;;;1999.90;999.90;;;3.30;99.90;;;;;;5108146;28;20461;-68
2023/02/05 01:09:01;;;;;;;1999.90;999.90;;;3.40;99.90;;;;;;5109045;28;20477;-67
2023/02/05 01:11:28;;;;;;;1999.90;999.90;;;3.40;99.90;;;;;;5109669;28;20447;-67
2023/02/05 01:13:56;;;;;;;1999.90;999.90;;;3.40;99.90;;;;;;5110116;28;20483;-67
2023/02/05 01:16:23;;;;;;;1999.90;999.90;;;3.30;99.90;;;;;;5108898;28;20461;-67
2023/02/05 01:18:51;;;;;;;1999.90;999.90;;;3.20;99.90;;;;;;5107745;28;20460;-68
2023/02/05 01:21:18;;;;;;;1999.90;999.90;;;3.40;99.90;;;;;;5109212;28;20445;-66
2023/02/05 01:23:45;;;;;;;1999.90;999.90;;;3.40;99.90;;;;;;5108147;28;20441;-67
2023/02/05 01:26:12;;;;;;;1999.90;999.90;;;3.50;99.90;;;;;;5107862;28;20461;-68
2023/02/05 01:28:38;;;;;;;1999.90;999.90;;;3.50;99.90;;;;;;5108004;28;20487;-68
2023/02/05 01:31:07;;;;;;;1999.90;999.90;;;3.50;99.90;;;;;;5107839;28;20480;-68
2023/02/05 01:33:33;;;;;;;1999.90;999.90;;;3.50;99.90;;;;;;5106908;28;20459;-67
2023/02/05 01:36:00;;;;;;;1999.90;999.90;;;3.40;99.90;;;;;;5108187;28;20461;-67
2023/02/05 01:38:27;;;;;;;1999.90;999.90;;;3.40;99.90;;;;;;5107344;28;20441;-67
2023/02/05 01:40:54;;;;;;;1999.90;999.90;;;3.40;99.90;;;;;;5108114;28;20445;-67
2023/02/05 01:43:20;;;;;;;1999.90;999.90;;;3.40;99.90;;;;;;5107254;28;20449;-69
2023/02/05 01:46:00;;;;;;;1999.90;999.90;;;3.40;99.90;;;;;;5107066;28;20464;-66
2023/02/05 01:48:35;;;;;;;1999.90;999.90;;;3.40;99.90;;;;;;5107407;28;20567;-68
2023/02/05 01:51:04;;;;;;;1999.90;999.90;;;3.30;99.90;;;;;;5107588;28;20456;-67
2023/02/05 01:53:34;;;;;;;1999.90;999.90;;;3.30;99.90;;;;;;5107739;28;20919;-66
2023/02/05 01:56:05;;;;;;;1999.90;999.90;;;3.30;99.90;;;;;;5108300;28;20461;-68
2023/02/05 01:58:40;;;;;;;1999.90;999.90;;;3.40;99.90;;;;;;5107842;28;20429;-65
2023/02/05 02:01:07;;;;;;;1999.90;999.90;;;3.40;99.90;;;;;;5108214;28;20445;-67
2023/02/05 02:03:35;;;;;;;1999.90;999.90;;;3.40;99.90;;;;;;5107927;28;20453;-68
2023/02/05 02:06:03;;;;;;;1999.90;999.90;;;3.30;99.90;;;;;;5108783;28;20549;-69
2023/02/05 02:08:31;;;;;;;1999.90;999.90;;;3.30;99.90;;;;;;5108638;28;20492;-69
2023/02/05 02:11:01;;;;;;;1999.90;999.90;;;3.30;99.90;;;;;;5108743;28;20446;-69
2023/02/05 02:13:29;;;;;;;1999.90;999.90;;;3.20;99.90;;;;;;5107855;28;20480;-69
2023/02/05 02:15:57;;;;;;;1999.90;999.90;;;3.20;99.90;;;;;;5108608;28;20469;-69
2023/02/05 02:18:27;;;;;;;1999.90;999.90;;;3.30;99.90;;;;;;5108268;28;20438;-70
2023/02/05 02:21:19;;;;;;;1999.90;999.90;;;3.20;99.90;;;;;;5108264;28;20471;-69
2023/02/05 02:24:02;;;;;;;1999.90;999.90;;;3.10;99.90;;;;;;5104961;28;20444;-67
2023/02/05 02:26:46;;;;;;;1999.90;999.90;;;3.10;99.90;;;;;;5107115;28;20465;-68
2023/02/05 02:29:22;;;;;;;1999.90;999.90;;;3.20;99.90;;;;;;5101106;27;20854;-67
2023/02/05 02:31:55;;;;;;;1999.90;999.90;;;3.20;99.90;;;;;;5106448;28;20862;-67
2023/02/05 02:34:30;;;;;;;1999.90;999.90;;;3.10;99.90;;;;;;5107118;28;20437;-68
2023/02/05 02:37:00;;;;;;;1999.90;999.90;;;3.10;99.90;;;;;;5107250;28;20460;-69
2023/02/05 02:39:32;;;;;;;1999.90;999.90;;;3.20;99.90;;;;;;5106557;28;20445;-67
2023/02/05 02:42:05;;;;;;;1999.90;999.90;;;3.20;99.90;;;;;;5107207;28;20452;-68
2023/02/05 02:44:37;;;;;;;1999.90;999.90;;;3.30;99.90;;;;;;5106553;28;20532;-67
2023/02/05 02:47:11;;;;;;;1999.90;999.90;;;3.30;99.90;;;;;;5111280;28;20833;-67
2023/02/05 02:49:41;;;;;;;1999.90;999.90;;;3.30;99.90;;;;;;5110536;28;20981;-68
2023/02/05 02:52:11;;;;;;;1999.90;999.90;;;3.20;99.90;;;;;;5110715;28;20441;-67
2023/02/05 02:54:43;;;;;;;1999.90;999.90;;;3.30;99.90;;;;;;5110321;28;20442;-67
2023/02/05 02:57:11;;;;;;;1999.90;999.90;;;3.30;99.90;;;;;;5110846;28;20473;-68
2023/02/05 02:59:42;;;;;;;1999.90;999.90;;;3.30;99.90;;;;;;5111502;28;20445;-67
2023/02/05 03:02:11;;;;;;;1999.90;999.90;;;3.30;99.90;;;;;;5111046;28;20463;-67
2023/02/05 03:04:41;;;;;;;1999.90;999.90;;;3.30;99.90;;;;;;5110918;28;20453;-67
2023/02/05 03:07:12;;;;;;;1999.90;999.90;;;3.40;99.90;;;;;;5111795;28;20461;-67
2023/02/05 03:09:46;;;;;;;1999.90;999.90;;;3.40;99.90;;;;;;5111355;28;20480;-68
2023/02/05 03:12:12;;;;;;;1999.90;999.90;;;3.40;99.90;;;;;;5112011;28;20467;-68
2023/02/05 03:14:41;;;;;;;1999.90;999.90;;;3.30;99.90;;;;;;5111046;28;20449;-69
2023/02/05 03:17:07;;;;;;;1999.90;999.90;;;3.20;99.90;;;;;;5111136;28;20465;-68
2023/02/05 03:19:34;;;;;;;1999.90;999.90;;;3.30;99.90;;;;;;5110878;28;20844;-67
2023/02/05 03:22:04;;;;;;;1999.90;999.90;;;3.20;99.90;;;;;;5110968;28;20990;-69
2023/02/05 03:24:32;;;;;;;1999.90;999.90;;;3.30;99.90;;;;;;5111229;28;20455;-67
2023/02/05 03:26:58;;;;;;;1999.90;999.90;;;3.20;99.90;;;;;;5112356;28;20460;-68
2023/02/05 03:29:28;;;;;;;1999.90;999.90;;;3.10;99.90;;;;;;5112734;28;20476;-69
2023/02/05 03:32:06;;;;;;;1999.90;999.90;;;3.10;99.90;;;;;;5112127;28;20959;-68
2023/02/05 03:34:44;;;;;;;1999.90;999.90;;;3.10;99.90;;;;;;5112373;28;21118;-67
2023/02/05 03:37:20;;;;;;;1999.90;999.90;;;3.20;99.90;;;;;;5112733;28;20522;-69
2023/02/05 03:40:00;;;;;;;1999.90;999.90;;;3.30;99.90;;;;;;5112301;28;20444;-68
2023/02/05 03:42:36;;;;;;;1999.90;999.90;;;3.30;99.90;;;;;;5110967;28;20441;-68
2023/02/05 03:45:24;;;;;;;1999.90;999.90;;;3.30;99.90;;;;;;5112431;28;20441;-67
2023/02/05 03:48:24;;;;;;;1999.90;999.90;;;3.20;99.90;;;;;;5087652;28;20978;-68
2023/02/05 03:50:55;;;;;;;1999.90;999.90;;;3.10;99.90;;;;;;5098084;28;20564;-68
2023/02/05 03:53:29;;;;;;;1999.90;999.90;;;3.10;99.90;;;;;;5112120;28;20938;-67
2023/02/05 03:56:04;;;;;;;1999.90;999.90;;;3.10;99.90;;;;;;5112061;28;20473;-68
2023/02/05 03:58:36;;;;;;;1999.90;999.90;;;3.00;99.90;;;;;;5112099;28;20448;-67
2023/02/05 04:01:04;;;;;;;1999.90;999.90;;;2.90;99.90;;;;;;5112289;28;20449;-68
2023/02/05 04:03:32;;;;;;;1999.90;999.90;;;2.80;99.90;;;;;;5111624;28;20457;-70
2023/02/05 04:05:59;;;;;;;1999.90;999.90;;;2.70;99.90;;;;;;5112374;28;20488;-69
2023/02/05 04:08:26;;;;;;;1999.90;999.90;;;2.60;99.90;;;;;;5112021;28;20449;-68
2023/02/05 04:10:52;;;;;;;1999.90;999.90;;;2.50;99.90;;;;;;5111755;28;20483;-68
2023/02/05 04:13:19;;;;;;;1999.90;999.90;;;2.40;99.90;;;;;;5111649;28;20441;-68
2023/02/05 04:15:48;;;;;;;1999.90;999.90;;;2.30;99.90;;;;;;5111031;28;20466;-68
2023/02/05 04:18:15;;;;;;;1999.90;999.90;;;2.30;99.90;;;;;;5112179;28;20471;-68
2023/02/05 04:20:43;;;;;;;1999.90;999.90;;;2.20;99.90;;;;;;5111407;28;20452;-68
2023/02/05 04:23:10;;;;;;;1999.90;999.90;;;2.20;99.90;;;;;;5111514;28;20445;-68
2023/02/05 04:25:37;;;;;;;1999.90;999.90;;;2.20;99.90;;;;;;5111596;28;20480;-68
2023/02/05 04:28:05;;;;;;;1999.90;999.90;;;2.20;99.90;;;;;;5111284;28;20460;-68
2023/02/05 04:30:32;;;;;;;1999.90;999.90;;;2.20;99.90;;;;;;5111045;28;20469;-69
2023/02/05 04:32:59;;;;;;;1999.90;999.90;;;2.10;99.90;;;;;;5111084;28;20975;-69
2023/02/05 04:35:26;;;;;;;1999.90;999.90;;;2.00;99.90;;;;;;5111582;28;20448;-68
2023/02/05 04:37:54;;;;;;;1999.90;999.90;;;1.90;99.90;;;;;;5111351;28;20814;-68
2023/02/05 04:40:21;;;;;;;1999.90;999.90;;;1.80;99.90;;;;;;5111124;28;20441;-68
2023/02/05 04:42:47;;;;;;;1999.90;999.90;;;1.90;99.90;;;;;;5110938;28;20453;-68
2023/02/05 04:45:14;;;;;;;1999.90;999.90;;;1.90;99.90;;;;;;5110493;28;20464;-67
2023/02/05 04:47:41;;;;;;;1999.90;999.90;;;1.80;99.90;;;;;;5111268;28;20448;-69
2023/02/05 04:50:08;;;;;;;1999.90;999.90;;;1.80;99.90;;;;;;5111281;28;20477;-68
2023/02/05 04:52:35;;;;;;;1999.90;999.90;;;2.00;99.90;;;;;;5110770;28;20448;-69
2023/02/05 04:55:04;;;;;;;1999.90;999.90;;;2.00;99.90;;;;;;5111225;28;20812;-69
2023/02/05 04:57:31;;;;;;;1999.90;999.90;;;1.90;99.90;;;;;;5110634;28;20476;-69
2023/02/05 04:59:58;;;;;;;1999.90;999.90;;;1.90;99.90;;;;;;5111077;28;20441;-69
2023/02/05 05:02:24;;;;;;;1999.90;999.90;;;1.90;99.90;;;;;;5111417;28;20833;-67
2023/02/05 05:04:51;;;;;;;1999.90;999.90;;;1.80;99.90;;;;;;5111536;28;20531;-69
2023/02/05 05:07:18;;;;;;;1999.90;999.90;;;1.80;99.90;;;;;;5110542;28;21008;-68
2023/02/05 05:09:45;;;;;;;1999.90;999.90;;;1.90;99.90;;;;;;5110311;28;21024;-67
2023/02/05 05:12:13;;;;;;;1999.90;999.90;;;1.90;99.90;;;;;;5110798;28;20441;-69
2023/02/05 05:14:40;;;;;;;1999.90;999.90;;;1.90;99.90;;;;;;5110527;28;20819;-68
2023/02/05 05:17:06;;;;;;;1999.90;999.90;;;1.90;99.90;;;;;;5110435;28;20648;-69
2023/02/05 05:19:33;;;;;;;1999.90;999.90;;;2.00;99.90;;;;;;5110668;28;20441;-67
2023/02/05 05:22:00;;;;;;;1999.90;999.90;;;2.00;99.90;;;;;;5110028;28;20449;-68
2023/02/05 05:24:27;;;;;;;1999.90;999.90;;;2.20;99.90;;;;;;5110138;28;20465;-69
2023/02/05 05:26:54;;;;;;;1999.90;999.90;;;2.20;99.90;;;;;;5110130;28;21034;-66
2023/02/05 05:29:22;;;;;;;1999.90;999.90;;;2.30;99.90;;;;;;5110202;28;20473;-69
2023/02/05 05:31:51;;;;;;;1999.90;999.90;;;2.20;99.90;;;;;;5110093;28;20449;-68
2023/02/05 05:34:18;;;;;;;1999.90;999.90;;;2.30;99.90;;;;;;5109907;28;20448;-68
2023/02/05 05:36:46;;;;;;;1999.90;999.90;;;2.40;99.90;;;;;;5110269;28;20472;-69
2023/02/05 05:44:43;;;;;;;1999.90;999.90;;;2.60;99.90;;;;;;5109864;28;20788;-69
2023/02/05 05:47:09;;;;;;;1999.90;999.90;;;2.60;99.90;;;;;;5109787;28;20457;-67
2023/02/05 05:49:36;;;;;;;1999.90;999.90;;;2.50;99.90;;;;;;5110091;28;20488;-67
2023/02/05 05:52:03;;;;;;;1999.90;999.90;;;2.60;99.90;;;;;;5109461;28;20448;-68
2023/02/05 05:54:30;;;;;;;1999.90;999.90;;;2.60;99.90;;;;;;5110245;28;20818;-68
2023/02/05 05:56:57;;;;;;;1999.90;999.90;;;2.70;99.90;;;;;;5109285;28;20469;-68
2023/02/05 05:59:24;;;;;;;1999.90;999.90;;;2.80;99.90;;;;;;5109834;28;20445;-68
2023/02/05 06:01:52;;;;;;;1999.90;999.90;;;2.80;99.90;;;;;;5109815;28;20453;-69
2023/02/05 06:04:19;;;;;;;1999.90;999.90;;;2.80;99.90;;;;;;5109424;28;20461;-68
2023/02/05 06:06:45;;;;;;;1999.90;999.90;;;2.80;99.90;;;;;;5110088;28;20469;-69
2023/02/05 06:09:12;;;;;;;1999.90;999.90;;;2.60;99.90;;;;;;5109596;28;20781;-68
2023/02/05 06:11:39;;;;;;;1999.90;999.90;;;2.50;99.90;;;;;;5109645;28;20445;-68
2023/02/05 06:14:06;;;;;;;1999.90;999.90;;;2.60;99.90;;;;;;5109038;28;20964;-67
2023/02/05 06:16:32;;;;;;;1999.90;999.90;;;2.70;99.90;;;;;;5109433;28;20464;-68
2023/02/05 06:19:00;;;;;;;1999.90;999.90;;;2.60;99.90;;;;;;5109241;28;20457;-67
2023/02/05 06:21:27;;;;;;;1999.90;999.90;;;2.60;99.90;;;;;;5108768;28;20449;-68
2023/02/05 06:23:54;;;;;;;1999.90;999.90;;;2.60;99.90;;;;;;5109617;28;20448;-67
2023/02/05 06:26:21;;;;;;;1999.90;999.90;;;2.50;99.90;;;;;;5109216;28;20501;-68
2023/02/05 06:28:47;;;;;;;1999.90;999.90;;;2.40;99.90;;;;;;5109332;28;20445;-68
2023/02/05 06:31:16;;;;;;;1999.90;999.90;;;2.40;99.90;;;;;;5109359;28;20492;-67
2023/02/05 06:33:42;;;;;;;1999.90;999.90;;;2.40;99.90;;;;;;5109260;28;20820;-68
2023/02/05 06:36:11;;;;;;;1999.90;999.90;;;2.30;99.90;;;;;;5109415;28;20476;-68
2023/02/05 06:38:37;;;;;;;1999.90;999.90;;;2.30;99.90;;;;;;5109270;28;20453;-68
2023/02/05 06:41:04;;;;;;;1999.90;999.90;;;2.40;99.90;;;;;;5110491;28;20441;-69
2023/02/05 06:43:31;;;;;;;1999.90;999.90;;;2.40;99.90;;;;;;5110251;28;20532;-66
2023/02/05 06:45:58;;;;;;;1999.90;999.90;;;2.60;99.90;;;;;;5109912;28;20473;-68
2023/02/05 06:48:25;;;;;;;1999.90;999.90;;;2.70;99.90;;;;;;5110379;28;20452;-67
2023/02/05 06:50:51;;;;;;;1999.90;999.90;;;2.80;99.90;;;;;;5109659;28;20480;-67
2023/02/05 06:53:19;;;;;;;1999.90;999.90;;;2.90;99.90;;;;;;5109794;28;20468;-67
2023/02/05 06:55:46;;;;;;;1999.90;999.90;;;2.90;99.90;;;;;;5109279;28;20465;-68
2023/02/05 06:58:13;;;;;;;1999.90;999.90;;;3.00;99.90;;;;;;5109635;28;21060;-67
2023/02/05 07:00:39;;;;;;;1999.90;999.90;;;3.10;99.90;;;;;;5109968;28;20438;-67
2023/02/05 07:03:06;;;;;;;1999.90;999.90;;;3.20;99.90;;;;;;5109029;28;20453;-67
2023/02/05 07:05:33;;;;;;;1999.90;999.90;;;3.20;99.90;;;;;;5109624;28;20461;-67
2023/02/05 07:08:00;;;;;;;1999.90;999.90;;;3.20;99.90;;;;;;5109776;28;20449;-67
2023/02/05 07:10:28;;;;;;;1999.90;999.90;;;3.30;99.90;;;;;;5109907;28;20484;-69
2023/02/05 07:12:55;;;;;;;1999.90;999.90;;;3.30;99.90;;;;;;5109218;28;20449;-67
2023/02/05 07:15:21;;;;;;;1999.90;999.90;;;3.40;99.90;;;;;;5109506;28;20466;-70
2023/02/05 07:17:49;;;;;;;1999.90;999.90;;;3.50;99.90;;;;;;5109610;28;20935;-67
2023/02/05 07:20:17;;;;;;;1999.90;999.90;;;3.50;99.90;;;;;;5109649;28;20445;-68
2023/02/05 07:22:45;;;;;;;1999.90;999.90;;;3.50;99.90;;;;;;5109312;28;20869;-67
2023/02/05 07:25:12;;;;;;;1999.90;999.90;;;3.50;99.90;;;;;;5109377;28;20825;-67
2023/02/05 07:27:40;;;;;;;1999.90;999.90;;;3.40;99.90;;;;;;5110038;28;20449;-67
2023/02/05 07:30:08;;;;;;;1999.90;999.90;;;3.40;99.90;;;;;;5109509;28;20476;-67
2023/02/05 07:32:35;;;;;;;1999.90;999.90;;;3.40;99.90;;;;;;5112672;28;20464;-67
2023/02/05 07:35:02;;;;;;;1999.90;999.90;;;3.50;99.90;;;;;;5113372;28;20950;-67
2023/02/05 07:37:29;;;;;;;1999.90;999.90;;;3.40;99.90;;;;;;5112690;28;20525;-67
2023/02/05 07:39:56;;;;;;;1999.90;999.90;;;3.30;99.90;;;;;;5112891;28;20457;-67
2023/02/05 07:42:23;;;;;;;1999.90;999.90;;;3.30;99.90;;;;;;5112423;28;20441;-66
2023/02/05 07:44:51;;;;;;;1999.90;999.90;;;3.40;99.90;;;;;;5112645;28;21006;-66
2023/02/05 07:47:17;;;;;;;1999.90;999.90;;;3.50;99.90;;;;;;5112790;28;20838;-66
2023/02/05 07:49:44;;;;;;;1999.90;999.90;;;3.50;99.90;;;;;;5112392;28;20445;-66
2023/02/05 07:52:11;;;;;;;1999.90;999.90;;;3.50;99.90;;;;;;5112619;28;20449;-67
2023/02/05 07:54:38;;;;;;;1999.90;999.90;;;3.50;99.90;;;;;;5111793;28;20635;-66
2023/02/05 07:57:05;;;;;;;1999.90;999.90;;;3.40;99.90;;;;;;5112245;28;20508;-68
2023/02/05 07:59:32;;;;;;;1999.90;999.90;;;3.30;99.90;;;;;;5112057;28;20453;-66
2023/02/05 08:02:00;;;;;;;1999.90;999.90;;;3.40;99.90;;;;;;5111948;28;20903;-68
2023/02/05 08:04:27;;;;;;;1999.90;999.90;;;3.50;99.90;;;;;;5111936;28;20441;-67
2023/02/05 08:06:53;;;;;;;1999.90;999.90;;;3.60;99.90;;;;;;5111569;28;20458;-67
2023/02/05 08:09:20;;;;;;;1999.90;999.90;;;3.60;99.90;;;;;;5111959;28;20559;-67
2023/02/05 08:11:47;;;;;;;1999.90;999.90;;;3.80;99.90;;;;;;5111536;28;20477;-67
2023/02/05 08:14:14;;;;;;;1999.90;999.90;;;3.90;99.90;;;;;;5111075;28;20437;-67
2023/02/05 08:16:40;;;;;;;1999.90;999.90;;;4.00;99.90;;;;;;5111796;28;20487;-67
2023/02/05 08:19:13;;;;;;;1999.90;999.90;;;4.00;99.90;;;;;;5110814;28;20966;-67
2023/02/05 08:21:40;;;;;;;1999.90;999.90;;;4.00;99.90;;;;;;5111481;28;20438;-67
2023/02/05 08:24:07;;;;;;;1999.90;999.90;;;4.20;99.90;;;;;;5110903;28;20452;-67
2023/02/05 08:26:33;;;;;;;1999.90;999.90;;;4.20;99.90;;;;;;5111462;28;20857;-69
2023/02/05 08:29:00;;;;;;;1999.90;999.90;;;4.20;99.90;;;;;;5111423;28;20456;-67
2023/02/05 08:31:27;;;;;;;1999.90;999.90;;;4.30;99.90;;;;;;5110614;28;20496;-67
2023/02/05 08:33:55;;;;;;;1999.90;999.90;;;4.40;99.90;;;;;;5111036;28;20437;-67
2023/02/05 08:36:23;;;;;;;1999.90;999.90;;;4.30;99.90;;;;;;5110528;28;20469;-67
2023/02/05 08:38:50;;;;;;;1999.90;999.90;;;4.40;99.90;;;;;;5111309;28;20447;-68
2023/02/05 08:41:17;;;;;;;1999.90;999.90;;;4.50;99.90;;;;;;5111181;28;20433;-69
2023/02/05 08:43:45;;;;;;;1999.90;999.90;;;4.60;99.90;;;;;;5109671;28;20441;-67
2023/02/05 08:46:13;;;;;;;1999.90;999.90;;;4.70;99.90;;;;;;5110671;28;20552;-69
2023/02/05 08:48:41;;;;;;;1999.90;999.90;;;4.80;99.90;;;;;;5110273;28;20449;-67
2023/02/05 08:51:09;;;;;;;1999.90;999.90;;;4.70;99.90;;;;;;5110510;28;20488;-67
2023/02/05 08:53:38;;;;;;;1999.90;999.90;;;4.90;99.90;;;;;;5109698;28;20460;-67
2023/02/05 08:56:05;;;;;;;1999.90;999.90;;;4.80;99.90;;;;;;5110480;28;21001;-67
2023/02/05 08:58:33;;;;;;;1999.90;999.90;;;4.80;99.90;;;;;;5110799;28;20441;-68
2023/02/05 09:01:01;;;;;;;1999.90;999.90;;;4.90;99.90;;;;;;5110005;28;20449;-66
2023/02/05 09:03:29;;;;;;;1999.90;999.90;;;5.00;99.90;;;;;;5109946;28;20457;-67
2023/02/05 09:05:56;;;;;;;1999.90;999.90;;;5.10;99.90;;;;;;5110009;28;20477;-68
2023/02/05 09:08:23;;;;;;;1999.90;999.90;;;5.20;99.90;;;;;;5110357;28;20445;-67
2023/02/05 09:10:51;;;;;;;1999.90;999.90;;;5.20;99.90;;;;;;5128382;27;20473;-66
2023/02/05 09:13:17;;;;;;;1999.90;999.90;;;5.10;99.90;;;;;;5122552;27;20444;-70
2023/02/05 09:15:46;;;;;;;1999.90;999.90;;;5.10;99.90;;;;;;5110665;28;20466;-65
2023/02/05 09:18:13;;;;;;;1999.90;999.90;;;5.10;99.90;;;;;;5110552;28;20442;-67
2023/02/05 09:20:40;;;;;;;1999.90;999.90;;;5.00;99.90;;;;;;5110856;28;20440;-67
2023/02/05 09:23:07;;;;;;;1999.90;999.90;;;5.00;99.90;;;;;;5109746;28;20947;-68
2023/02/05 09:25:34;;;;;;;1999.90;999.90;;;4.90;99.90;;;;;;5110097;28;20468;-67
2023/02/05 09:28:02;;;;;;;1999.90;999.90;;;4.80;99.90;;;;;;5110111;28;20449;-67
2023/02/05 09:30:29;;;;;;;1999.90;999.90;;;4.80;99.90;;;;;;5109752;28;20931;-68
2023/02/05 09:32:56;;;;;;;1999.90;999.90;;;4.70;99.90;;;;;;5110521;28;20446;-67
2023/02/05 09:35:22;;;;;;;1999.90;999.90;;;4.70;99.90;;;;;;5110578;28;20440;-67
2023/02/05 09:37:49;;;;;;;1999.90;999.90;;;4.60;99.90;;;;;;5110333;28;20958;-69
2023/02/05 09:40:20;;;;;;;1999.90;999.90;;;4.60;99.90;;;;;;5110329;28;20806;-68
2023/02/05 09:42:57;;;;;;;1999.90;999.90;;;4.60;99.90;;;;;;5109397;28;20445;-68
2023/02/05 09:45:36;;;;;;;1999.90;999.90;;;4.50;99.90;;;;;;5110284;28;20786;-71
2023/02/05 09:48:17;;;;;;;1999.90;999.90;;;4.50;99.90;;;;;;5109452;28;20437;-66
2023/02/05 09:50:44;;;;;;;1999.90;999.90;;;4.40;99.90;;;;;;5109978;28;20469;-69
2023/02/05 09:53:16;;;;;;;1999.90;999.90;;;4.40;99.90;;;;;;5107662;28;20453;-68
2023/02/05 09:55:45;;;;;;;1999.90;999.90;;;4.30;99.90;;;;;;5100602;28;20969;-66
2023/02/05 09:58:16;;;;;;;1999.90;999.90;;;4.30;99.90;;;;;;5104125;28;20438;-68
2023/02/05 10:00:46;;;;;;;1999.90;999.90;;;4.20;99.90;;;;;;5102312;28;21242;-68
2023/02/05 10:03:23;;;;;;;1999.90;999.90;;;4.20;99.90;;;;;;5106944;28;20924;-67
2023/02/05 10:06:04;;;;;;;1999.90;999.90;;;4.10;99.90;;;;;;5102977;28;20464;-66
2023/02/05 10:08:40;;;;;;;1999.90;999.90;;;4.10;99.90;;;;;;5104915;28;20429;-68
2023/02/05 10:11:19;;;;;;;1999.90;999.90;;;4.20;99.90;;;;;;5106102;28;20484;-69
2023/02/05 10:13:51;;;;;;;1999.90;999.90;;;4.30;99.90;;;;;;5106954;28;20674;-69
2023/02/05 10:16:33;;;;;;;1999.90;999.90;;;4.30;99.90;;;;;;5107043;28;20488;-68
2023/02/05 10:19:16;;;;;;;1999.90;999.90;;;4.40;99.90;;;;;;5106995;28;20449;-68
2023/02/05 10:21:56;;;;;;;1999.90;999.90;;;4.50;99.90;;;;;;5107344;28;20440;-67
2023/02/05 10:24:42;;;;;;;1999.90;999.90;;;4.70;99.90;;;;;;5106646;28;20445;-70
2023/02/05 10:27:17;;;;;;;1999.90;999.90;;;4.70;99.90;;;;;;5109754;27;20527;-67
2023/02/05 10:29:53;;;;;;;1999.90;999.90;;;4.70;99.90;;;;;;5106459;28;20437;-68
2023/02/05 10:32:23;;;;;;;1999.90;999.90;;;4.80;99.90;;;;;;5110450;27;20477;-68
2023/02/05 10:34:56;;;;;;;1999.90;999.90;;;4.90;99.90;;;;;;5107833;27;20440;-67
2023/02/05 10:37:38;;;;;;;1999.90;999.90;;;5.00;99.90;;;;;;5104764;27;20532;-69
2023/02/05 10:40:12;;;;;;;1999.90;999.90;;;5.00;99.90;;;;;;5105748;28;20437;-67
2023/02/05 10:42:44;;;;;;;1999.90;999.90;;;5.00;99.90;;;;;;5107056;28;20428;-68
2023/02/05 10:45:16;;;;;;;1999.90;999.90;;;5.10;99.90;;;;;;5110204;28;20437;-68
2023/02/05 10:48:00;;;;;;;1999.90;999.90;;;5.10;99.90;;;;;;5106750;28;20535;-68
2023/02/05 10:50:32;;;;;;;1999.90;999.90;;;5.20;99.90;;;;;;5106338;28;20438;-69
2023/02/05 10:52:58;;;;;;;1999.90;999.90;;;5.20;99.90;;;;;;5108853;28;20479;-70
2023/02/05 10:55:25;;;;;;;1999.90;999.90;;;5.30;99.90;;;;;;5108096;28;21099;-67
2023/02/05 10:57:52;;;;;;;1999.90;999.90;;;5.20;99.90;;;;;;5106888;28;20818;-69
2023/02/05 11:00:21;;;;;;;1999.90;999.90;;;5.20;99.90;;;;;;5103813;28;21379;-67
2023/02/05 11:02:53;;;;;;;1999.90;999.90;;;5.30;99.90;;;;;;5106732;28;20447;-67
2023/02/05 11:05:24;;;;;;;1999.90;999.90;;;5.30;99.90;;;;;;5122087;27;20934;-69
2023/02/05 11:07:53;;;;;;;1999.90;999.90;;;5.30;99.90;;;;;;5118192;27;20446;-69
2023/02/05 11:10:22;;;;;;;1999.90;999.90;;;5.30;99.90;;;;;;5109440;28;20445;-69
2023/02/05 11:12:52;;;;;;;1999.90;999.90;;;5.30;99.90;;;;;;5109561;27;20880;-70
2023/02/05 11:15:22;;;;;;;1999.90;999.90;;;5.30;99.90;;;;;;5121632;27;20452;-68
2023/02/05 11:17:56;;;;;;;1999.90;999.90;;;5.20;99.90;;;;;;5112474;27;20460;-68
2023/02/05 11:20:28;;;;;;;1999.90;999.90;;;5.30;99.90;;;;;;5108558;27;20441;-67
2023/02/05 11:23:17;;;;;;;1999.90;999.90;;;5.30;99.90;;;;;;5111258;27;20868;-66
2023/02/05 11:25:52;;;;;;;1999.90;999.90;;;5.30;99.90;;;;;;5115984;27;20452;-69
2023/02/05 11:28:23;;;;;;;1999.90;999.90;;;5.40;99.90;;;;;;5109605;27;20968;-68
2023/02/05 11:30:50;;;;;;;1999.90;999.90;;;5.30;99.90;;;;;;5110473;27;20494;-67
2023/02/05 11:33:28;;;;;;;1999.90;999.90;;;5.30;99.90;;;;;;5123032;27;20463;-67
2023/02/05 11:35:57;;;;;;;1999.90;999.90;;;5.30;99.90;;;;;;5114654;27;20468;-68
2023/02/05 11:38:33;;;;;;;1999.90;999.90;;;5.40;99.90;;;;;;5097647;28;20453;-69
2023/02/05 11:41:04;;;;;;;1999.90;999.90;;;5.50;99.90;;;;;;5108831;27;20461;-69
2023/02/05 11:43:33;;;;;;;1999.90;999.90;;;5.50;99.90;;;;;;5111526;27;20446;-68
2023/02/05 11:46:02;;;;;;;1999.90;999.90;;;5.50;99.90;;;;;;5110090;27;20461;-68
2023/02/05 11:48:37;;;;;;;1999.90;999.90;;;5.50;99.90;;;;;;5116311;27;20436;-67
2023/02/05 11:51:06;;;;;;;1999.90;999.90;;;5.60;99.90;;;;;;5116096;27;20942;-68
2023/02/05 11:53:34;;;;;;;1999.90;999.90;;;5.60;99.90;;;;;;5110135;27;20444;-67
2023/02/05 11:56:07;;;;;;;1999.90;999.90;;;5.50;99.90;;;;;;5111414;27;20574;-70
2023/02/05 11:58:34;;;;;;;1999.90;999.90;;;5.60;99.90;;;;;;5109134;28;20452;-68
2023/02/05 12:01:04;;;;;;;1999.90;999.90;;;5.70;99.90;;;;;;5111722;27;20825;-69
2023/02/05 12:03:34;;;;;;;1999.90;999.90;;;5.80;99.90;;;;;;5126301;27;21289;-68
2023/02/05 12:06:09;;;;;;;1999.90;999.90;;;5.80;99.90;;;;;;5111664;27;20472;-69
2023/02/05 12:08:43;;;;;;;1999.90;999.90;;;5.90;99.90;;;;;;5110019;27;20466;-72
2023/02/05 12:11:22;;;;;;;1999.90;999.90;;;5.80;99.90;;;;;;5114602;27;20934;-70
2023/02/05 12:14:05;;;;;;;1999.90;999.90;;;5.80;99.90;;;;;;5111577;27;20451;-70
2023/02/05 12:16:47;;;;;;;1999.90;999.90;;;5.80;99.90;;;;;;5106638;27;20981;-69
2023/02/05 12:19:20;;;;;;;1999.90;999.90;;;5.80;99.90;;;;;;5098050;28;20564;-68
2023/02/05 12:21:56;;;;;;;1999.90;999.90;;;5.80;99.90;;;;;;5104804;28;20994;-68
2023/02/05 12:24:47;;;;;;;1999.90;999.90;;;5.60;99.90;;;;;;5098619;28;20918;-71